Time;durP1;ratioP1;P1;durP2;ratioP2;P2;SDS_P1;SDS_P2;PMS_P1;PMS_P2;Temp;Humidity;BMP_temperature;BMP_pressure;BME280_temperature;BME280_humidity;BME280_pressure;Samples;Min_cycle;Max_cycle;Signal;HPM_P1;HPM_P2
2023/08/29 00:01:31;;;;;;;3.77;3.00;;;14.20;99.90;;;;;;4979571;28;20187;-33
2023/08/29 00:03:58;;;;;;;5.17;3.00;;;14.20;99.90;;;;;;4987476;28;20180;-33
2023/08/29 00:06:24;;;;;;;3.43;3.13;;;14.20;99.90;;;;;;4986956;28;20180;-33
2023/08/29 00:08:50;;;;;;;3.90;3.60;;;14.20;99.90;;;;;;4977973;28;20175;-33
2023/08/29 00:11:16;;;;;;;3.23;2.90;;;14.20;99.90;;;;;;4978552;28;20203;-33
2023/08/29 00:13:43;;;;;;;4.40;3.67;;;14.20;99.90;;;;;;4976965;28;20188;-33
2023/08/29 00:16:12;;;;;;;3.30;3.00;;;14.20;99.90;;;;;;5010429;28;20190;-33
2023/08/29 00:18:38;;;;;;;3.47;3.17;;;14.20;99.90;;;;;;4995536;28;20225;-33
2023/08/29 00:21:04;;;;;;;6.30;3.20;;;14.20;99.90;;;;;;4975484;28;20212;-33
2023/08/29 00:23:30;;;;;;;3.47;3.17;;;14.20;99.90;;;;;;4989960;28;20180;-33
2023/08/29 00:25:56;;;;;;;4.87;3.60;;;14.20;99.90;;;;;;4977663;28;20179;-33
2023/08/29 00:28:23;;;;;;;4.47;3.67;;;14.20;99.90;;;;;;4994326;28;20183;-33
2023/08/29 00:30:49;;;;;;;6.97;3.70;;;14.20;99.90;;;;;;4979396;28;20203;-33
2023/08/29 00:33:16;;;;;;;4.53;3.30;;;14.20;99.90;;;;;;4985290;28;20181;-33
2023/08/29 00:35:42;;;;;;;3.70;3.40;;;14.20;99.90;;;;;;4979364;28;20198;-33
2023/08/29 00:38:11;;;;;;;4.63;3.73;;;14.20;99.90;;;;;;4987077;28;20207;-33
2023/08/29 00:40:37;;;;;;;4.10;3.70;;;14.20;99.90;;;;;;4994955;28;20199;-33
2023/08/29 00:43:03;;;;;;;3.70;3.40;;;14.20;99.90;;;;;;4972356;28;20183;-33
2023/08/29 00:45:32;;;;;;;4.87;3.37;;;14.20;99.90;;;;;;4966241;28;20179;-33
2023/08/29 00:47:58;;;;;;;3.70;3.40;;;14.20;99.90;;;;;;4994195;28;20269;-33
2023/08/29 00:50:26;;;;;;;4.17;2.97;;;14.20;99.90;;;;;;4981530;28;20255;-33
2023/08/29 00:53:00;;;;;;;3.67;3.37;;;14.20;99.90;;;;;;4976864;28;20187;-33
2023/08/29 00:55:28;;;;;;;3.53;3.17;;;14.20;99.90;;;;;;5001159;28;20213;-33
2023/08/29 00:57:59;;;;;;;4.27;3.50;;;14.10;99.90;;;;;;4990939;28;20235;-33
2023/08/29 01:00:27;;;;;;;3.53;3.23;;;14.20;99.90;;;;;;4994511;28;20298;-33
2023/08/29 01:02:53;;;;;;;4.40;3.10;;;14.10;99.90;;;;;;4984296;28;20179;-33
2023/08/29 01:05:23;;;;;;;4.27;3.97;;;14.10;99.90;;;;;;4994592;28;20175;-33
2023/08/29 01:07:53;;;;;;;4.37;3.70;;;14.10;99.90;;;;;;4980160;28;20188;-33
2023/08/29 01:10:33;;;;;;;4.07;3.67;;;14.10;99.90;;;;;;4977250;28;20206;-33
2023/08/29 01:13:11;;;;;;;3.73;3.43;;;14.10;99.90;;;;;;4978186;28;20283;-33
2023/08/29 01:15:39;;;;;;;4.53;4.13;;;14.10;99.90;;;;;;4975247;28;20179;-33
2023/08/29 01:18:07;;;;;;;4.40;3.87;;;14.10;99.90;;;;;;4981756;28;20203;-33
2023/08/29 01:20:35;;;;;;;4.20;3.80;;;14.10;99.90;;;;;;4994114;28;20215;-33
2023/08/29 01:23:03;;;;;;;4.87;3.77;;;14.10;99.90;;;;;;4981463;28;20207;-33
2023/08/29 01:26:05;;;;;;;4.13;3.73;;;14.00;99.90;;;;;;4985773;28;20183;-33
2023/08/29 01:28:32;;;;;;;3.90;3.60;;;14.10;99.90;;;;;;4965948;28;20189;-33
2023/08/29 01:30:59;;;;;;;5.40;3.73;;;14.00;99.90;;;;;;4985705;28;20208;-33
2023/08/29 01:33:26;;;;;;;4.70;3.10;;;14.00;99.90;;;;;;4979100;28;20188;-33
2023/08/29 01:35:52;;;;;;;4.27;3.87;;;14.00;99.90;;;;;;4993778;28;20183;-33
2023/08/29 01:38:21;;;;;;;4.70;4.30;;;14.00;99.90;;;;;;4986206;28;20202;-33
2023/08/29 01:40:46;;;;;;;4.33;3.93;;;13.90;99.90;;;;;;4975702;28;20258;-33
2023/08/29 01:43:12;;;;;;;3.97;3.67;;;14.00;99.90;;;;;;4981502;28;20184;-33
2023/08/29 01:45:38;;;;;;;4.63;3.80;;;13.90;99.90;;;;;;4974025;28;20198;-33
2023/08/29 01:48:04;;;;;;;4.27;3.90;;;13.90;99.90;;;;;;4984990;28;20202;-33
2023/08/29 01:50:32;;;;;;;4.50;4.10;;;13.90;99.90;;;;;;4974235;28;20215;-33
2023/08/29 01:53:02;;;;;;;4.23;3.83;;;13.90;99.90;;;;;;4992264;28;20196;-33
2023/08/29 01:55:29;;;;;;;4.83;4.10;;;14.00;99.90;;;;;;4973811;28;20196;-35
2023/08/29 01:57:57;;;;;;;4.03;3.73;;;14.00;99.90;;;;;;4970252;28;20211;-33
2023/08/29 02:00:23;;;;;;;4.17;3.87;;;14.00;99.90;;;;;;5006593;28;20230;-33
2023/08/29 02:02:49;;;;;;;8.53;3.93;;;13.90;99.90;;;;;;4968586;28;20211;-33
2023/08/29 02:05:15;;;;;;;4.87;4.23;;;14.00;99.90;;;;;;4994102;28;20191;-33
2023/08/29 02:07:41;;;;;;;5.37;4.87;;;14.00;99.90;;;;;;4993817;28;20191;-33
2023/08/29 02:10:08;;;;;;;5.40;4.93;;;14.00;99.90;;;;;;4994310;28;20199;-33
2023/08/29 02:12:34;;;;;;;6.00;5.40;;;13.90;99.90;;;;;;4977188;28;20191;-33
2023/08/29 02:15:00;;;;;;;7.13;5.50;;;13.90;99.90;;;;;;4977247;28;20270;-33
2023/08/29 02:17:27;;;;;;;5.83;5.33;;;13.90;99.90;;;;;;4981743;28;20172;-33
2023/08/29 02:19:52;;;;;;;6.67;5.90;;;13.90;99.90;;;;;;4989188;28;20211;-33
2023/08/29 02:22:18;;;;;;;6.53;5.90;;;13.80;99.90;;;;;;4996042;28;20341;-34
2023/08/29 02:24:47;;;;;;;6.70;6.00;;;13.80;99.90;;;;;;4981411;28;20233;-33
2023/08/29 02:27:14;;;;;;;6.80;5.77;;;13.80;99.90;;;;;;4980680;28;20179;-34
2023/08/29 02:29:40;;;;;;;6.43;5.10;;;13.80;99.90;;;;;;4995020;28;20199;-33
2023/08/29 02:32:07;;;;;;;6.93;5.90;;;13.80;99.90;;;;;;4981568;28;20237;-33
2023/08/29 02:34:33;;;;;;;8.30;6.20;;;13.80;99.90;;;;;;4979384;28;20187;-33
2023/08/29 02:36:59;;;;;;;6.67;6.03;;;13.80;99.90;;;;;;4990999;28;20186;-33
2023/08/29 02:39:25;;;;;;;6.20;5.60;;;13.80;99.90;;;;;;5002241;28;20226;-33
2023/08/29 02:41:51;;;;;;;6.00;5.50;;;13.80;99.90;;;;;;4980772;28;20194;-33
2023/08/29 02:44:17;;;;;;;6.73;6.13;;;13.80;99.90;;;;;;4977697;28;20176;-33
2023/08/29 02:46:43;;;;;;;6.57;5.90;;;13.80;99.90;;;;;;4980965;28;20187;-34
2023/08/29 02:49:09;;;;;;;6.90;6.07;;;13.80;99.90;;;;;;4991437;28;20217;-33
2023/08/29 02:51:35;;;;;;;5.93;5.33;;;13.80;99.90;;;;;;5001567;28;20204;-34
2023/08/29 02:54:01;;;;;;;7.13;6.43;;;13.80;99.90;;;;;;4991087;28;20183;-33
2023/08/29 02:56:27;;;;;;;6.87;5.73;;;13.80;99.90;;;;;;5010492;28;20179;-33
2023/08/29 02:58:54;;;;;;;8.67;6.17;;;13.80;99.90;;;;;;4979900;28;20211;-33
2023/08/29 03:01:20;;;;;;;6.47;5.87;;;13.80;99.90;;;;;;4996715;28;20195;-33
2023/08/29 03:03:46;;;;;;;6.17;5.63;;;13.80;99.90;;;;;;4982396;28;20183;-33
2023/08/29 03:06:11;;;;;;;8.23;6.27;;;13.90;99.90;;;;;;4989668;28;20175;-33
2023/08/29 03:08:37;;;;;;;7.27;6.53;;;13.90;99.90;;;;;;4984785;28;20187;-33
2023/08/29 03:11:06;;;;;;;6.57;5.97;;;13.90;99.90;;;;;;4983170;28;20290;-33
2023/08/29 03:13:32;;;;;;;6.87;6.27;;;13.90;99.90;;;;;;5001767;28;20183;-33
2023/08/29 03:16:02;;;;;;;6.87;6.27;;;13.90;99.90;;;;;;4988170;28;20192;-33
2023/08/29 03:18:28;;;;;;;6.93;6.10;;;14.00;99.90;;;;;;4995018;28;20346;-33
2023/08/29 03:20:54;;;;;;;7.20;6.50;;;14.00;99.90;;;;;;4996319;28;20242;-33
2023/08/29 03:23:20;;;;;;;9.00;6.23;;;14.00;99.90;;;;;;4996173;28;20184;-33
2023/08/29 03:25:46;;;;;;;7.87;6.37;;;14.00;99.90;;;;;;4981784;28;20238;-33
2023/08/29 03:28:12;;;;;;;7.70;6.17;;;14.00;99.90;;;;;;4986592;28;20183;-33
2023/08/29 03:30:37;;;;;;;5.77;5.27;;;14.00;99.90;;;;;;4996513;28;20306;-33
2023/08/29 03:33:04;;;;;;;7.80;6.40;;;14.00;99.90;;;;;;4980483;28;20180;-33
2023/08/29 03:35:30;;;;;;;6.93;6.27;;;14.00;99.90;;;;;;4979069;28;20191;-33
2023/08/29 03:37:56;;;;;;;7.63;6.00;;;14.00;99.90;;;;;;4977632;28;20290;-33
2023/08/29 03:40:22;;;;;;;6.93;6.23;;;14.00;99.90;;;;;;4978347;28;20288;-33
2023/08/29 03:42:48;;;;;;;9.00;6.70;;;14.00;99.90;;;;;;4973978;28;20309;-33
2023/08/29 03:45:15;;;;;;;6.20;5.70;;;14.00;99.90;;;;;;4984008;28;20183;-33
2023/08/29 03:47:41;;;;;;;8.33;7.47;;;14.00;99.90;;;;;;4978110;28;20230;-33
2023/08/29 03:50:07;;;;;;;7.60;6.90;;;14.00;99.90;;;;;;4996003;28;20207;-33
2023/08/29 03:52:33;;;;;;;7.43;6.70;;;14.00;99.90;;;;;;4988129;28;20199;-33
2023/08/29 03:54:58;;;;;;;7.30;6.60;;;14.00;99.90;;;;;;4979697;28;20187;-33
2023/08/29 03:57:28;;;;;;;7.23;6.27;;;14.00;99.90;;;;;;4976161;28;20235;-33
2023/08/29 03:59:55;;;;;;;7.37;6.67;;;14.00;99.90;;;;;;4967416;28;20211;-33
2023/08/29 04:02:21;;;;;;;7.07;6.30;;;14.10;99.90;;;;;;4987005;28;20175;-33
2023/08/29 04:04:51;;;;;;;7.70;7.00;;;14.00;99.90;;;;;;4983689;28;20180;-35
2023/08/29 04:07:17;;;;;;;8.37;6.63;;;14.00;99.90;;;;;;4995516;28;20180;-33
2023/08/29 04:09:43;;;;;;;8.03;6.60;;;14.00;99.90;;;;;;4995570;28;20222;-33
2023/08/29 04:12:10;;;;;;;7.07;6.37;;;14.00;99.90;;;;;;4986775;28;20206;-33
2023/08/29 04:14:37;;;;;;;7.20;6.07;;;14.00;99.90;;;;;;4995403;28;20191;-33
2023/08/29 04:17:03;;;;;;;8.50;6.70;;;14.00;99.90;;;;;;4979506;28;20179;-33
2023/08/29 04:19:33;;;;;;;6.53;5.93;;;14.00;99.90;;;;;;4978525;28;20318;-66
2023/08/29 04:21:59;;;;;;;9.27;7.00;;;14.00;99.90;;;;;;4995494;28;20182;-33
2023/08/29 04:24:25;;;;;;;9.23;7.27;;;14.00;99.90;;;;;;4979196;28;20175;-33
2023/08/29 04:26:52;;;;;;;8.30;7.27;;;13.90;99.90;;;;;;4978985;28;20179;-33
2023/08/29 04:29:17;;;;;;;7.50;6.80;;;14.00;99.90;;;;;;4991157;28;20180;-33
2023/08/29 04:31:43;;;;;;;7.87;7.07;;;14.00;99.90;;;;;;4971935;28;20271;-33
2023/08/29 04:34:09;;;;;;;8.17;7.37;;;14.00;99.90;;;;;;4994473;28;20191;-33
2023/08/29 04:36:35;;;;;;;8.77;7.93;;;14.00;99.90;;;;;;4995313;28;20264;-33
2023/08/29 04:39:01;;;;;;;9.07;8.10;;;14.00;99.90;;;;;;4976122;28;20207;-33
2023/08/29 04:41:27;;;;;;;7.80;7.00;;;13.90;99.90;;;;;;4986008;28;20199;-33
2023/08/29 04:43:53;;;;;;;8.47;7.50;;;13.90;99.90;;;;;;4978924;28;20183;-33
2023/08/29 04:46:18;;;;;;;8.70;7.80;;;13.90;99.90;;;;;;4982097;28;20183;-33
2023/08/29 04:48:44;;;;;;;8.10;7.30;;;13.90;99.90;;;;;;4976844;28;20278;-33
2023/08/29 04:51:10;;;;;;;9.07;7.80;;;14.00;99.90;;;;;;4978496;28;20214;-33
2023/08/29 04:53:36;;;;;;;8.80;7.80;;;13.90;99.90;;;;;;4975485;28;20255;-33
2023/08/29 04:56:03;;;;;;;8.63;7.83;;;13.90;99.90;;;;;;4978416;28;20187;-33
2023/08/29 04:58:33;;;;;;;8.70;7.83;;;13.90;99.90;;;;;;4987967;28;20203;-33
2023/08/29 05:01:00;;;;;;;8.90;7.47;;;13.90;99.90;;;;;;4975344;28;20195;-33
2023/08/29 05:03:27;;;;;;;8.50;7.70;;;13.90;99.90;;;;;;4985433;28;20207;-33
2023/08/29 05:05:54;;;;;;;8.00;7.20;;;13.90;99.90;;;;;;4994469;28;20179;-33
2023/08/29 05:08:21;;;;;;;8.83;7.67;;;13.90;99.90;;;;;;4994520;28;20206;-33
2023/08/29 05:10:46;;;;;;;8.93;8.10;;;13.90;99.90;;;;;;4978207;28;20286;-33
2023/08/29 05:13:13;;;;;;;9.10;8.30;;;13.90;99.90;;;;;;4996719;28;20178;-33
2023/08/29 05:15:41;;;;;;;8.83;8.03;;;13.90;99.90;;;;;;4991316;28;20192;-33
2023/08/29 05:18:07;;;;;;;10.53;9.13;;;14.00;99.90;;;;;;4983018;28;20212;-33
2023/08/29 05:20:35;;;;;;;8.90;8.00;;;14.00;99.90;;;;;;4974464;28;20221;-33
2023/08/29 05:23:01;;;;;;;10.60;9.60;;;14.00;99.90;;;;;;4976046;28;20191;-33
2023/08/29 05:25:27;;;;;;;9.97;8.77;;;13.90;99.90;;;;;;4994119;28;20180;-33
2023/08/29 05:27:53;;;;;;;9.67;8.10;;;13.90;99.90;;;;;;4983342;28;20225;-33
2023/08/29 05:30:19;;;;;;;9.77;8.77;;;14.00;99.90;;;;;;4974859;28;20199;-32
2023/08/29 05:32:45;;;;;;;11.33;10.23;;;14.00;99.90;;;;;;4973237;28;20174;-32
2023/08/29 05:35:11;;;;;;;10.83;9.73;;;14.10;99.90;;;;;;4978071;28;20274;-33
2023/08/29 05:37:37;;;;;;;11.83;9.40;;;14.10;99.90;;;;;;4976788;28;20272;-33
2023/08/29 05:40:03;;;;;;;11.07;10.07;;;14.10;99.90;;;;;;4975778;28;20207;-33
2023/08/29 05:42:29;;;;;;;11.40;9.33;;;14.10;99.90;;;;;;4976148;28;20269;-33
2023/08/29 05:44:55;;;;;;;11.67;10.53;;;14.10;99.90;;;;;;4975192;28;20225;-33
2023/08/29 05:47:21;;;;;;;12.70;10.17;;;14.10;99.90;;;;;;4993829;28;20182;-32
2023/08/29 05:49:47;;;;;;;12.13;11.03;;;14.20;99.90;;;;;;4977473;28;20238;-34
2023/08/29 05:52:13;;;;;;;11.47;10.40;;;14.20;99.90;;;;;;4968233;28;20183;-32
2023/08/29 05:54:39;;;;;;;11.57;10.47;;;14.20;99.90;;;;;;5007339;28;20210;-32
2023/08/29 05:57:05;;;;;;;12.73;11.53;;;14.20;99.90;;;;;;4974256;28;20186;-32
2023/08/29 05:59:31;;;;;;;12.00;10.80;;;14.20;99.90;;;;;;4972358;28;20218;-32
2023/08/29 06:01:56;;;;;;;11.10;9.90;;;14.20;99.90;;;;;;4974908;28;20180;-32
2023/08/29 06:04:22;;;;;;;12.00;10.90;;;14.20;99.90;;;;;;4992736;28;20187;-32
2023/08/29 06:06:49;;;;;;;13.30;10.90;;;14.20;99.90;;;;;;4985521;28;20188;-32
2023/08/29 06:09:15;;;;;;;11.30;10.17;;;14.20;99.90;;;;;;4993685;28;20179;-32
2023/08/29 06:11:41;;;;;;;11.80;10.70;;;14.20;99.90;;;;;;4986509;28;20184;-32
2023/08/29 06:14:07;;;;;;;10.60;9.50;;;14.20;99.90;;;;;;4962031;28;20199;-32
2023/08/29 06:16:33;;;;;;;12.00;10.70;;;14.20;99.90;;;;;;4989474;28;20204;-32
2023/08/29 06:18:59;;;;;;;11.77;10.30;;;14.20;99.90;;;;;;4980931;28;20207;-32
2023/08/29 06:21:25;;;;;;;11.67;10.57;;;14.30;99.90;;;;;;4989456;28;20227;-32
2023/08/29 06:23:50;;;;;;;12.10;10.90;;;14.30;99.90;;;;;;4973642;28;20182;-32
2023/08/29 06:26:16;;;;;;;13.67;12.27;;;14.30;99.90;;;;;;4993980;28;20186;-33
2023/08/29 06:28:42;;;;;;;12.97;11.63;;;14.30;99.90;;;;;;4976328;28;20187;-32
2023/08/29 06:31:08;;;;;;;12.80;11.50;;;14.40;99.90;;;;;;4985228;28;20417;-32
2023/08/29 06:33:35;;;;;;;11.57;10.47;;;14.40;99.90;;;;;;4978654;28;20199;-32
2023/08/29 06:36:01;;;;;;;14.40;12.90;;;14.40;99.90;;;;;;4977018;28;20218;-32
2023/08/29 06:38:27;;;;;;;13.63;12.30;;;14.40;99.90;;;;;;4993095;28;20233;-32
2023/08/29 06:40:57;;;;;;;13.57;12.20;;;14.50;99.90;;;;;;4992093;28;20196;-33
2023/08/29 06:43:23;;;;;;;12.37;11.07;;;14.40;99.90;;;;;;4981903;28;20180;-33
2023/08/29 06:45:49;;;;;;;12.33;11.13;;;14.50;99.90;;;;;;4991237;28;20180;-33
2023/08/29 06:48:15;;;;;;;13.00;11.70;;;14.50;99.90;;;;;;4967110;28;20202;-33
2023/08/29 06:50:41;;;;;;;13.43;12.13;;;14.50;99.90;;;;;;4975654;28;20257;-33
2023/08/29 06:53:07;;;;;;;13.00;11.70;;;14.50;99.90;;;;;;4986232;28;20212;-33
2023/08/29 06:55:34;;;;;;;13.17;11.87;;;14.50;99.90;;;;;;4983674;28;20183;-33
2023/08/29 06:58:01;;;;;;;12.37;11.27;;;14.50;99.90;;;;;;4983734;28;20207;-36
2023/08/29 07:00:27;;;;;;;11.93;10.77;;;14.60;99.90;;;;;;4973693;28;20211;-34
2023/08/29 07:02:53;;;;;;;12.50;11.40;;;14.60;99.90;;;;;;4969830;28;20180;-35
2023/08/29 07:05:20;;;;;;;14.23;12.93;;;14.60;99.90;;;;;;4987915;28;20185;-35
2023/08/29 07:07:45;;;;;;;11.83;10.77;;;14.60;99.90;;;;;;4988467;28;20214;-34
2023/08/29 07:10:11;;;;;;;13.20;12.00;;;14.60;99.90;;;;;;5006858;28;20229;-34
2023/08/29 07:12:37;;;;;;;14.20;12.57;;;14.70;99.90;;;;;;4975988;28;20233;-35
2023/08/29 07:15:03;;;;;;;12.53;11.03;;;14.70;99.90;;;;;;4988713;28;20190;-35
2023/08/29 07:17:29;;;;;;;11.90;10.77;;;14.70;99.90;;;;;;4995494;28;20745;-35
2023/08/29 07:19:55;;;;;;;11.63;10.63;;;14.70;99.90;;;;;;4968946;28;20310;-34
2023/08/29 07:22:21;;;;;;;11.67;10.47;;;14.70;99.90;;;;;;4980146;28;20183;-35
2023/08/29 07:24:47;;;;;;;11.00;10.00;;;14.80;99.90;;;;;;4977398;28;20188;-35
2023/08/29 07:27:13;;;;;;;11.73;10.63;;;14.80;99.90;;;;;;4979991;28;20187;-34
2023/08/29 07:29:39;;;;;;;12.77;11.43;;;14.80;99.90;;;;;;5012856;28;20203;-34
2023/08/29 07:32:05;;;;;;;12.10;10.87;;;14.80;99.90;;;;;;4999003;28;20202;-34
2023/08/29 07:34:31;;;;;;;11.53;10.30;;;14.80;99.90;;;;;;4976400;28;20223;-34
2023/08/29 07:36:56;;;;;;;11.53;10.33;;;14.80;99.90;;;;;;4969149;28;20215;-34
2023/08/29 07:39:24;;;;;;;12.97;11.40;;;14.80;99.90;;;;;;4995860;28;20218;-34
2023/08/29 07:41:50;;;;;;;15.33;13.80;;;14.80;99.90;;;;;;4988607;28;20180;-34
2023/08/29 07:44:16;;;;;;;13.23;11.93;;;14.80;99.90;;;;;;4981281;28;20183;-34
2023/08/29 07:46:42;;;;;;;13.03;11.80;;;14.80;99.90;;;;;;4984892;28;20206;-34
2023/08/29 07:49:13;;;;;;;15.73;14.20;;;14.80;99.90;;;;;;4977017;28;20188;-34
2023/08/29 07:51:40;;;;;;;12.30;11.20;;;14.80;99.90;;;;;;4980205;28;20187;-34
2023/08/29 07:54:06;;;;;;;11.27;10.13;;;14.70;99.90;;;;;;4987884;28;20194;-34
2023/08/29 07:56:32;;;;;;;13.37;12.17;;;14.70;99.90;;;;;;4979107;28;20183;-34
2023/08/29 07:58:58;;;;;;;13.60;12.20;;;14.70;99.90;;;;;;4971648;28;20199;-34
2023/08/29 08:01:24;;;;;;;11.57;10.47;;;14.80;99.90;;;;;;4987511;28;20205;-34
2023/08/29 08:03:50;;;;;;;11.50;10.37;;;14.70;99.90;;;;;;4981796;28;20187;-34
2023/08/29 08:06:16;;;;;;;13.10;11.80;;;14.80;99.90;;;;;;4978381;28;20182;-34
2023/08/29 08:08:41;;;;;;;13.40;12.10;;;14.80;99.90;;;;;;4995553;28;20176;-34
2023/08/29 08:11:08;;;;;;;12.43;11.13;;;14.80;99.90;;;;;;4979499;28;20261;-34
2023/08/29 08:13:34;;;;;;;12.03;10.93;;;14.90;99.90;;;;;;4967404;28;20184;-34
2023/08/29 08:16:00;;;;;;;10.90;9.80;;;14.90;99.90;;;;;;4994461;28;20187;-34
2023/08/29 08:18:26;;;;;;;10.87;9.87;;;14.90;99.90;;;;;;4983078;28;20203;-34
2023/08/29 08:20:52;;;;;;;11.73;10.60;;;14.90;99.90;;;;;;4978773;28;20226;-34
2023/08/29 08:23:18;;;;;;;11.63;10.00;;;14.90;99.90;;;;;;4985499;28;20195;-35
2023/08/29 08:25:44;;;;;;;11.20;10.17;;;15.00;99.90;;;;;;4973918;28;20207;-34
2023/08/29 08:28:10;;;;;;;10.10;9.20;;;15.10;99.90;;;;;;4977004;28;20195;-34
2023/08/29 08:30:39;;;;;;;11.57;10.40;;;15.20;99.90;;;;;;4995207;28;20230;-34
2023/08/29 08:33:05;;;;;;;11.50;10.37;;;15.20;99.90;;;;;;4977670;28;20187;-34
2023/08/29 08:35:32;;;;;;;10.47;9.47;;;15.30;99.90;;;;;;4982825;28;20197;-34
2023/08/29 08:37:58;;;;;;;11.13;10.10;;;15.30;99.90;;;;;;4998806;28;20188;-34
2023/08/29 08:40:24;;;;;;;10.10;9.10;;;15.30;99.90;;;;;;4978749;28;20203;-34
2023/08/29 08:42:50;;;;;;;9.03;8.13;;;15.30;99.90;;;;;;4978026;28;20339;-34
2023/08/29 08:45:17;;;;;;;9.73;8.10;;;15.40;99.90;;;;;;4970966;28;20180;-34
2023/08/29 08:47:43;;;;;;;8.07;7.27;;;15.40;99.90;;;;;;4978180;28;20184;-34
2023/08/29 08:50:09;;;;;;;10.40;9.47;;;15.50;99.90;;;;;;4962571;28;20686;-34
2023/08/29 08:52:38;;;;;;;9.50;7.97;;;15.50;99.90;;;;;;4976548;28;20188;-34
2023/08/29 08:55:05;;;;;;;10.00;9.00;;;15.50;99.90;;;;;;4964933;28;20278;-34
2023/08/29 08:57:32;;;;;;;9.17;8.17;;;15.50;99.90;;;;;;4994482;28;20179;-34
2023/08/29 08:59:57;;;;;;;9.33;8.47;;;15.60;99.90;;;;;;4978329;28;20305;-35
2023/08/29 09:02:25;;;;;;;7.97;7.28;;;15.60;99.90;;;;;;4980281;28;20273;-34
2023/08/29 09:04:50;;;;;;;8.40;6.63;;;15.60;99.90;;;;;;4978299;28;20184;-35
2023/08/29 09:07:16;;;;;;;8.15;7.45;;;15.70;99.90;;;;;;4977656;28;20187;-34
2023/08/29 09:09:42;;;;;;;7.23;6.13;;;15.70;99.90;;;;;;4978370;28;20250;-34
2023/08/29 09:12:08;;;;;;;7.77;7.07;;;15.70;99.90;;;;;;4986867;28;20194;-35
2023/08/29 09:14:34;;;;;;;8.27;6.55;;;15.70;99.90;;;;;;4977938;28;20184;-34
2023/08/29 09:17:01;;;;;;;6.43;5.85;;;15.80;99.90;;;;;;4977964;28;20179;-35
2023/08/29 09:19:30;;;;;;;7.20;6.47;;;15.80;99.90;;;;;;4978285;28;20211;-35
2023/08/29 09:21:57;;;;;;;7.20;6.60;;;15.90;99.90;;;;;;4974933;28;20183;-35
2023/08/29 09:24:31;;;;;;;6.47;5.90;;;16.00;99.90;;;;;;4993703;28;20217;-35
2023/08/29 09:26:56;;;;;;;7.80;6.90;;;16.10;99.90;;;;;;4977816;28;20179;-34
2023/08/29 09:29:23;;;;;;;8.13;6.22;;;16.00;99.90;;;;;;4977390;28;20194;-35
2023/08/29 09:31:50;;;;;;;5.90;5.30;;;16.00;99.90;;;;;;4985745;28;20206;-35
2023/08/29 09:34:26;;;;;;;6.63;5.82;;;16.00;99.90;;;;;;4989577;28;20183;-35
2023/08/29 09:36:53;;;;;;;8.88;8.02;;;16.00;99.90;;;;;;4982365;28;20214;-35
2023/08/29 09:39:21;;;;;;;8.30;7.50;;;16.00;99.90;;;;;;4993903;28;20215;-35
2023/08/29 09:42:09;;;;;;;7.03;6.40;;;16.00;99.90;;;;;;4974941;28;20653;-35
2023/08/29 09:44:40;;;;;;;7.32;6.68;;;16.00;99.90;;;;;;4978703;28;20189;-35
2023/08/29 09:47:08;;;;;;;6.80;6.20;;;15.90;99.90;;;;;;4990947;28;20183;-35
2023/08/29 09:49:47;;;;;;;8.77;7.53;;;15.90;99.90;;;;;;4984216;28;20213;-35
2023/08/29 09:52:15;;;;;;;7.93;7.22;;;16.00;99.90;;;;;;4993560;28;20199;-35
2023/08/29 09:54:51;;;;;;;7.97;7.28;;;15.90;99.90;;;;;;4993693;28;20190;-35
2023/08/29 09:57:24;;;;;;;8.50;7.60;;;16.00;99.90;;;;;;4992875;28;20183;-35
2023/08/29 09:59:57;;;;;;;6.80;6.10;;;15.90;99.90;;;;;;4993694;28;20214;-35
2023/08/29 10:02:24;;;;;;;7.53;6.82;;;16.00;99.90;;;;;;4984970;28;20196;-35
2023/08/29 10:04:58;;;;;;;7.85;7.20;;;16.00;99.90;;;;;;4985716;28;20202;-35
2023/08/29 10:07:26;;;;;;;7.70;6.90;;;16.00;99.90;;;;;;4992250;28;20198;-36
2023/08/29 10:09:52;;;;;;;7.68;6.68;;;16.00;99.90;;;;;;4977643;28;20199;-35
2023/08/29 10:12:19;;;;;;;8.73;7.93;;;16.00;99.90;;;;;;4979282;28;20194;-35
2023/08/29 10:14:46;;;;;;;9.70;8.77;;;16.00;99.90;;;;;;4999730;28;20190;-35
2023/08/29 10:17:13;;;;;;;7.68;6.97;;;16.00;99.90;;;;;;4974596;28;20200;-35
2023/08/29 10:22:15;;;;;;;8.68;7.97;;;16.00;99.90;;;;;;4974752;28;20218;-41
2023/08/29 10:24:43;;;;;;;7.53;6.82;;;16.00;99.90;;;;;;4973571;28;20219;-42
2023/08/29 10:27:10;;;;;;;8.63;7.90;;;16.00;99.90;;;;;;4957893;28;20219;-42
2023/08/29 10:29:37;;;;;;;7.65;6.95;;;16.00;99.90;;;;;;4953419;28;20196;-42
2023/08/29 10:32:05;;;;;;;7.97;7.28;;;16.10;99.90;;;;;;4919767;29;20209;-41
2023/08/29 10:34:31;;;;;;;9.50;7.85;;;16.20;99.90;;;;;;4940489;28;20251;-41
2023/08/29 10:36:58;;;;;;;8.55;7.85;;;16.20;99.90;;;;;;4938655;28;20193;-42
2023/08/29 10:39:27;;;;;;;7.38;6.78;;;16.20;99.90;;;;;;4940441;28;20209;-42
2023/08/29 10:41:55;;;;;;;7.90;7.20;;;16.30;99.90;;;;;;4958106;28;20236;-41
2023/08/29 10:44:32;;;;;;;7.57;6.97;;;16.40;99.90;;;;;;4942614;28;20252;-41
2023/08/29 10:47:19;;;;;;;7.97;7.35;;;16.40;99.90;;;;;;4942133;28;20203;-40
2023/08/29 10:49:46;;;;;;;8.63;7.93;;;16.40;99.90;;;;;;4935380;28;20184;-41
2023/08/29 10:52:13;;;;;;;7.60;6.82;;;16.50;99.90;;;;;;4941928;28;20196;-43
2023/08/29 10:54:40;;;;;;;6.65;5.97;;;16.50;99.90;;;;;;4942403;28;20221;-40
2023/08/29 10:57:29;;;;;;;7.15;6.45;;;16.60;99.90;;;;;;4939191;28;20184;-41
2023/08/29 10:59:58;;;;;;;8.13;7.32;;;16.60;99.90;;;;;;4952980;28;20268;-41
2023/08/29 11:02:32;;;;;;;7.15;6.45;;;16.70;99.90;;;;;;4940705;28;20189;-43
2023/08/29 11:05:04;;;;;;;6.50;5.97;;;16.70;99.90;;;;;;4949672;28;20188;-42
2023/08/29 11:07:31;;;;;;;5.82;5.18;;;16.70;99.90;;;;;;4941676;28;20180;-43
2023/08/29 11:10:17;;;;;;;6.57;6.07;;;16.80;99.90;;;;;;4941881;28;20231;-42
2023/08/29 11:13:06;;;;;;;6.05;5.07;;;16.80;99.90;;;;;;4953820;29;20191;-42
2023/08/29 11:15:48;;;;;;;4.90;4.50;;;16.80;99.90;;;;;;4961765;28;20189;-42
2023/08/29 11:18:26;;;;;;;6.63;6.07;;;16.80;99.90;;;;;;4937484;29;20220;-43
2023/08/29 11:20:54;;;;;;;5.80;5.18;;;16.70;99.90;;;;;;4957425;28;20239;-42
2023/08/29 11:23:22;;;;;;;5.05;4.65;;;16.70;99.90;;;;;;4941481;28;20180;-42
2023/08/29 11:25:51;;;;;;;4.88;4.47;;;16.70;99.90;;;;;;4941413;28;20756;-42
2023/08/29 11:28:18;;;;;;;5.18;4.05;;;16.70;99.90;;;;;;4945962;28;20214;-42
2023/08/29 11:30:48;;;;;;;3.88;3.58;;;16.70;99.90;;;;;;4938126;29;20208;-42
2023/08/29 11:33:14;;;;;;;3.85;3.55;;;16.70;99.90;;;;;;4925820;28;20314;-43
2023/08/29 11:35:42;;;;;;;4.75;3.63;;;16.70;99.90;;;;;;4948096;28;20200;-42
2023/08/29 11:38:08;;;;;;;4.65;4.25;;;16.70;99.90;;;;;;4939071;29;20217;-43
2023/08/29 11:40:35;;;;;;;4.97;4.57;;;16.70;99.90;;;;;;4956980;28;20204;-42
2023/08/29 11:43:02;;;;;;;4.88;4.38;;;16.70;99.90;;;;;;4940558;28;20205;-42
2023/08/29 11:45:30;;;;;;;3.92;3.63;;;16.70;99.90;;;;;;4940977;28;20191;-43
2023/08/29 11:47:57;;;;;;;3.78;3.47;;;16.70;99.90;;;;;;4936764;29;20188;-43
2023/08/29 11:50:22;;;;;;;4.45;4.05;;;16.70;99.90;;;;;;4953756;28;20223;-43
2023/08/29 11:52:48;;;;;;;5.40;4.90;;;16.70;99.90;;;;;;4922132;29;20193;-43
2023/08/29 11:55:17;;;;;;;4.57;4.18;;;16.70;99.90;;;;;;4922301;28;20184;-43
2023/08/29 11:57:45;;;;;;;5.55;5.13;;;16.80;99.90;;;;;;4937038;29;20193;-43
2023/08/29 12:00:13;;;;;;;5.10;4.22;;;16.70;99.90;;;;;;4940620;28;20259;-42
2023/08/29 12:02:39;;;;;;;5.03;4.60;;;16.70;99.90;;;;;;4946043;28;20277;-43
2023/08/29 12:05:10;;;;;;;5.50;5.10;;;16.70;99.90;;;;;;4933052;29;20273;-43
2023/08/29 12:07:36;;;;;;;6.10;4.93;;;16.60;99.90;;;;;;4940538;28;20192;-43
2023/08/29 12:10:10;;;;;;;5.72;5.07;;;16.60;99.90;;;;;;4940751;28;20232;-42
2023/08/29 12:12:37;;;;;;;5.97;5.38;;;16.50;99.90;;;;;;4921823;29;20189;-43
2023/08/29 12:15:10;;;;;;;6.43;5.82;;;16.50;99.90;;;;;;4934871;28;20193;-43
2023/08/29 12:17:41;;;;;;;6.05;5.55;;;16.40;99.90;;;;;;4937729;28;20191;-43
2023/08/29 12:20:13;;;;;;;6.40;5.70;;;16.30;99.90;;;;;;4953181;28;20228;-43
2023/08/29 12:22:48;;;;;;;6.03;5.53;;;16.30;99.90;;;;;;4945575;29;20200;-42
2023/08/29 12:25:15;;;;;;;5.13;4.70;;;16.30;99.90;;;;;;4921715;28;20180;-42
2023/08/29 12:27:41;;;;;;;7.07;6.05;;;16.30;99.90;;;;;;4936077;28;20185;-42
2023/08/29 12:30:14;;;;;;;5.38;4.80;;;16.30;99.90;;;;;;4960689;28;20284;-42
2023/08/29 12:32:42;;;;;;;5.30;4.90;;;16.30;99.90;;;;;;4945369;28;20225;-42
2023/08/29 12:35:08;;;;;;;5.60;5.05;;;16.40;99.90;;;;;;4938846;28;20192;-43
2023/08/29 12:37:34;;;;;;;6.00;4.65;;;16.40;99.90;;;;;;4939740;28;20316;-43
2023/08/29 12:40:04;;;;;;;5.30;4.80;;;16.40;99.90;;;;;;4940096;28;20275;-42
2023/08/29 12:42:30;;;;;;;6.47;5.13;;;16.40;99.90;;;;;;4940231;28;20268;-42
2023/08/29 12:44:56;;;;;;;6.05;5.55;;;16.50;99.90;;;;;;4939327;28;20185;-43
2023/08/29 12:47:22;;;;;;;4.78;4.30;;;16.50;99.90;;;;;;4939428;28;20188;-42